Time;durP1;ratioP1;P1;durP2;ratioP2;P2;SDS_P1;SDS_P2;PMS_P1;PMS_P2;Temp;Humidity;BMP_temperature;BMP_pressure;BME280_temperature;BME280_humidity;BME280_pressure;Samples;Min_cycle;Max_cycle;Signal;HPM_P1;HPM_P2
2022/06/22 00:00:32;;;;;;;3.60;2.73;;;;;;;;;;4991829;28;21454;-81
2022/06/22 00:02:58;;;;;;;3.20;2.40;;;;;;;;;;4988649;28;20233;-81
2022/06/22 00:05:31;;;;;;;3.20;2.40;;;;;;;;;;5006636;28;20241;-82
2022/06/22 00:07:59;;;;;;;4.00;2.73;;;;;;;;;;4994317;28;20284;-81
2022/06/22 00:10:31;;;;;;;4.13;2.43;;;;;;;;;;4975447;28;20198;-81
2022/06/22 00:12:57;;;;;;;3.40;2.40;;;;;;;;;;4998642;28;20198;-81
2022/06/22 00:15:27;;;;;;;5.87;2.37;;;;;;;;;;4998194;28;20192;-81
2022/06/22 00:17:53;;;;;;;3.20;2.20;;;;;;;;;;4997618;28;20198;-80
2022/06/22 00:20:21;;;;;;;4.27;2.07;;;;;;;;;;4993010;28;20197;-82
2022/06/22 00:22:51;;;;;;;3.30;2.00;;;;;;;;;;4995940;28;20197;-80
2022/06/22 00:25:36;;;;;;;3.60;2.30;;;;;;;;;;4998419;28;20213;-81
2022/06/22 00:28:38;;;;;;;4.50;2.73;;;;;;;;;;4975681;28;20194;-82
2022/06/22 00:31:13;;;;;;;3.70;2.30;;;;;;;;;;4951836;28;20183;-80
2022/06/22 00:33:39;;;;;;;2.50;2.30;;;;;;;;;;4995906;28;20205;-81
2022/06/22 00:36:20;;;;;;;3.97;2.50;;;;;;;;;;4996997;28;20554;-80
2022/06/22 00:38:46;;;;;;;2.40;2.20;;;;;;;;;;4998546;28;20205;-81
2022/06/22 00:41:17;;;;;;;2.47;2.27;;;;;;;;;;5008735;28;20186;-81
2022/06/22 00:43:43;;;;;;;3.10;2.20;;;;;;;;;;4993609;28;20276;-79
2022/06/22 00:46:16;;;;;;;5.00;3.10;;;;;;;;;;4992627;28;20310;-79
2022/06/22 00:48:42;;;;;;;4.40;2.90;;;;;;;;;;4999426;28;20190;-81
2022/06/22 00:51:09;;;;;;;2.73;2.53;;;;;;;;;;4997505;28;20264;-81
2022/06/22 00:53:38;;;;;;;3.20;2.30;;;;;;;;;;4996287;28;20571;-80
2022/06/22 00:56:10;;;;;;;2.97;2.30;;;;;;;;;;5000208;28;20191;-81
2022/06/22 00:58:53;;;;;;;3.93;2.20;;;;;;;;;;4994731;28;21110;-80
2022/06/22 01:01:38;;;;;;;5.17;2.57;;;;;;;;;;4996690;28;21162;-81
2022/06/22 01:04:08;;;;;;;5.97;2.87;;;;;;;;;;4997750;28;20348;-80
2022/06/22 01:06:44;;;;;;;3.47;2.67;;;;;;;;;;4994275;28;20644;-81
2022/06/22 01:09:13;;;;;;;3.70;2.67;;;;;;;;;;4996432;28;20726;-79
2022/06/22 01:14:27;;;;;;;4.47;2.80;;;;;;;;;;4996048;28;20673;-80
2022/06/22 01:16:54;;;;;;;4.67;2.87;;;;;;;;;;4996365;28;20200;-80
2022/06/22 01:19:37;;;;;;;3.17;2.30;;;;;;;;;;4994052;28;20201;-79
2022/06/22 01:22:19;;;;;;;4.83;2.80;;;;;;;;;;4991429;28;21733;-80
2022/06/22 01:24:57;;;;;;;4.60;2.77;;;;;;;;;;4988513;28;20205;-81
2022/06/22 01:27:26;;;;;;;4.93;2.57;;;;;;;;;;4994512;28;20197;-79
2022/06/22 01:29:53;;;;;;;4.17;2.50;;;;;;;;;;4991465;28;20185;-81
2022/06/22 01:32:29;;;;;;;2.90;2.67;;;;;;;;;;4988826;28;20273;-81
2022/06/22 01:34:56;;;;;;;2.50;2.30;;;;;;;;;;4996093;28;20201;-79
2022/06/22 01:37:26;;;;;;;6.70;2.20;;;;;;;;;;4990031;28;20685;-81
2022/06/22 01:39:56;;;;;;;2.60;2.40;;;;;;;;;;4993926;28;20190;-81
2022/06/22 01:42:33;;;;;;;4.90;2.83;;;;;;;;;;4977452;28;21047;-80
2022/06/22 01:45:20;;;;;;;5.00;2.80;;;;;;;;;;5022737;22;21440;-55
2022/06/22 01:47:48;;;;;;;3.53;2.70;;;;;;;;;;4985503;28;20268;-55
2022/06/22 01:50:14;;;;;;;3.80;3.00;;;;;;;;;;4986336;28;20308;-55
2022/06/22 01:52:50;;;;;;;4.83;3.23;;;;;;;;;;4988496;28;20185;-56
2022/06/22 01:55:32;;;;;;;4.00;2.70;;;;;;;;;;4984195;28;20240;-56
2022/06/22 01:58:01;;;;;;;6.80;2.97;;;;;;;;;;4983489;28;20192;-56
2022/06/22 02:00:27;;;;;;;3.73;3.07;;;;;;;;;;4985495;28;20682;-56
2022/06/22 02:03:13;;;;;;;5.27;2.67;;;;;;;;;;4984650;28;20216;-56
2022/06/22 02:05:50;;;;;;;4.13;2.73;;;;;;;;;;4969476;28;20237;-56
2022/06/22 02:08:21;;;;;;;3.63;2.70;;;;;;;;;;4985371;28;20312;-56
2022/06/22 02:10:49;;;;;;;3.70;2.60;;;;;;;;;;4990196;28;20196;-55
2022/06/22 02:13:15;;;;;;;3.60;3.00;;;;;;;;;;4989533;28;20182;-56
2022/06/22 02:15:47;;;;;;;3.00;2.80;;;;;;;;;;4985031;28;20863;-56
2022/06/22 02:18:36;;;;;;;4.07;2.97;;;;;;;;;;4990610;28;20469;-56
2022/06/22 02:21:21;;;;;;;6.13;3.10;;;;;;;;;;4978607;28;20248;-56
2022/06/22 02:23:48;;;;;;;4.83;2.63;;;;;;;;;;4988643;28;20197;-56
2022/06/22 02:26:19;;;;;;;4.23;2.30;;;;;;;;;;4990865;28;20209;-57
2022/06/22 02:28:45;;;;;;;5.33;2.60;;;;;;;;;;4992107;28;20201;-57
2022/06/22 02:31:11;;;;;;;3.80;2.53;;;;;;;;;;4987008;28;20182;-55
2022/06/22 02:33:38;;;;;;;4.07;2.53;;;;;;;;;;4989420;28;20498;-55
2022/06/22 02:36:04;;;;;;;5.27;2.70;;;;;;;;;;4991458;28;20284;-55
2022/06/22 02:38:30;;;;;;;5.93;2.03;;;;;;;;;;4995479;28;20737;-55
2022/06/22 02:46:27;;;;;;;3.27;2.60;;;;;;;;;;4993786;28;20228;-56
2022/06/22 02:48:56;;;;;;;4.17;2.63;;;;;;;;;;4998755;28;20659;-56
2022/06/22 02:51:29;;;;;;;5.47;3.30;;;;;;;;;;4990122;28;20267;-57
2022/06/22 02:53:55;;;;;;;5.47;3.23;;;;;;;;;;4994137;28;20716;-56
2022/06/22 02:56:23;;;;;;;4.70;3.53;;;;;;;;;;4994446;28;20241;-55
2022/06/22 02:58:49;;;;;;;4.13;3.07;;;;;;;;;;4986102;28;20208;-56
2022/06/22 03:01:19;;;;;;;4.77;2.50;;;;;;;;;;4994273;28;20646;-56
2022/06/22 03:03:46;;;;;;;2.90;2.53;;;;;;;;;;4990407;28;20197;-56
2022/06/22 03:06:12;;;;;;;4.00;2.63;;;;;;;;;;4992316;28;20225;-56
2022/06/22 03:08:38;;;;;;;3.37;2.57;;;;;;;;;;4974274;28;20186;-55
2022/06/22 03:11:04;;;;;;;4.47;2.40;;;;;;;;;;4995016;28;20190;-55
2022/06/22 03:13:46;;;;;;;2.43;2.23;;;;;;;;;;4985284;28;20181;-55
2022/06/22 03:16:23;;;;;;;4.20;2.73;;;;;;;;;;4986877;28;20670;-56
2022/06/22 03:18:50;;;;;;;2.83;2.27;;;;;;;;;;4994201;28;20189;-57
2022/06/22 03:21:16;;;;;;;6.63;3.00;;;;;;;;;;4994507;28;20546;-57
2022/06/22 03:23:55;;;;;;;3.70;2.27;;;;;;;;;;4988165;28;20197;-56
2022/06/22 03:26:32;;;;;;;4.50;2.70;;;;;;;;;;4987410;28;20217;-56
2022/06/22 03:29:01;;;;;;;3.63;2.37;;;;;;;;;;4994108;28;20716;-56
2022/06/22 03:31:28;;;;;;;5.13;2.53;;;;;;;;;;4993391;28;20214;-55
2022/06/22 03:34:02;;;;;;;6.67;3.07;;;;;;;;;;4991911;28;20186;-55
2022/06/22 03:36:31;;;;;;;5.00;2.43;;;;;;;;;;4985410;28;20190;-55
2022/06/22 03:39:00;;;;;;;3.60;2.60;;;;;;;;;;4992230;28;20186;-57
2022/06/22 03:41:26;;;;;;;3.70;2.50;;;;;;;;;;4984245;28;20702;-56
2022/06/22 03:44:00;;;;;;;3.13;2.20;;;;;;;;;;4989480;28;20182;-55
2022/06/22 03:46:38;;;;;;;3.87;2.47;;;;;;;;;;4984092;28;20249;-57
2022/06/22 03:49:07;;;;;;;3.13;2.50;;;;;;;;;;4986026;28;20197;-55
2022/06/22 03:51:45;;;;;;;3.13;2.60;;;;;;;;;;4991888;28;20658;-56
2022/06/22 03:54:13;;;;;;;3.80;2.37;;;;;;;;;;4990305;28;20182;-55
2022/06/22 03:56:40;;;;;;;5.17;2.40;;;;;;;;;;4988867;28;20194;-55
2022/06/22 03:59:06;;;;;;;3.00;2.70;;;;;;;;;;4988289;28;20194;-55
2022/06/22 04:01:32;;;;;;;6.33;3.10;;;;;;;;;;4985996;28;20770;-55
2022/06/22 04:03:58;;;;;;;4.10;3.00;;;;;;;;;;4984791;28;20272;-56
2022/06/22 04:06:31;;;;;;;3.50;2.80;;;;;;;;;;4986342;28;20226;-55
2022/06/22 04:08:58;;;;;;;4.03;2.73;;;;;;;;;;4986260;28;20277;-55
2022/06/22 04:11:25;;;;;;;4.13;2.67;;;;;;;;;;4984675;28;20189;-56
2022/06/22 04:13:59;;;;;;;5.40;3.60;;;;;;;;;;4990248;28;20185;-55
2022/06/22 04:16:27;;;;;;;3.40;3.10;;;;;;;;;;4985129;28;20205;-56
2022/06/22 04:18:57;;;;;;;5.17;3.13;;;;;;;;;;4993018;28;20818;-56
2022/06/22 04:21:24;;;;;;;5.00;2.97;;;;;;;;;;4995389;28;20201;-56
2022/06/22 04:23:51;;;;;;;3.10;2.80;;;;;;;;;;4986988;28;20192;-56
2022/06/22 04:26:26;;;;;;;5.33;3.20;;;;;;;;;;4978681;28;20217;-56
2022/06/22 04:28:54;;;;;;;3.37;3.07;;;;;;;;;;4978053;28;20842;-56
2022/06/22 04:31:25;;;;;;;3.73;3.00;;;;;;;;;;4989299;28;20194;-55
2022/06/22 04:34:03;;;;;;;3.70;3.30;;;;;;;;;;4984345;28;20195;-55
2022/06/22 04:36:39;;;;;;;4.53;3.70;;;;;;;;;;4990837;28;20280;-56
2022/06/22 04:39:09;;;;;;;4.40;3.93;;;;;;;;;;4988865;28;20197;-56
2022/06/22 04:41:36;;;;;;;6.43;3.50;;;;;;;;;;4987874;28;20280;-55
2022/06/22 04:44:03;;;;;;;4.53;3.87;;;;;;;;;;4990720;28;20193;-54
2022/06/22 04:46:35;;;;;;;6.77;3.90;;;;;;;;;;4988908;28;20702;-55
2022/06/22 04:49:04;;;;;;;5.50;3.60;;;;;;;;;;4990596;28;20639;-55
2022/06/22 04:51:34;;;;;;;9.03;4.37;;;;;;;;;;4979981;28;20181;-55
2022/06/22 04:54:14;;;;;;;7.43;4.60;;;;;;;;;;4983453;28;20776;-55
2022/06/22 04:56:41;;;;;;;5.93;4.20;;;;;;;;;;4991172;28;20872;-55
2022/06/22 04:59:07;;;;;;;7.50;4.00;;;;;;;;;;4988785;28;20186;-56
2022/06/22 05:01:38;;;;;;;4.83;4.33;;;;;;;;;;4983252;28;20194;-55
2022/06/22 05:04:05;;;;;;;6.47;3.97;;;;;;;;;;4985015;28;20634;-55
2022/06/22 05:06:41;;;;;;;4.27;3.53;;;;;;;;;;4978526;28;20380;-55
2022/06/22 05:09:09;;;;;;;6.90;4.03;;;;;;;;;;4980344;28;20185;-56
2022/06/22 05:11:45;;;;;;;6.40;4.10;;;;;;;;;;4982219;28;20671;-55
2022/06/22 05:14:25;;;;;;;6.20;4.00;;;;;;;;;;4984519;28;20197;-56
2022/06/22 05:16:52;;;;;;;7.70;4.17;;;;;;;;;;4979121;28;20201;-56
2022/06/22 05:19:18;;;;;;;5.97;4.30;;;;;;;;;;4967575;28;20194;-57
2022/06/22 05:21:45;;;;;;;8.53;5.10;;;;;;;;;;4988386;28;20229;-56
2022/06/22 05:24:24;;;;;;;9.07;4.93;;;;;;;;;;4992551;28;20197;-57
2022/06/22 05:26:50;;;;;;;7.10;4.90;;;;;;;;;;4993369;28;20185;-58
2022/06/22 05:29:21;;;;;;;8.83;4.20;;;;;;;;;;4991672;28;20197;-57
2022/06/22 05:31:48;;;;;;;4.63;3.70;;;;;;;;;;4994058;28;20247;-56
2022/06/22 05:34:15;;;;;;;9.63;3.40;;;;;;;;;;4994621;28;20228;-57
2022/06/22 05:36:43;;;;;;;6.27;3.80;;;;;;;;;;4996066;28;20186;-58
2022/06/22 05:39:09;;;;;;;4.87;3.57;;;;;;;;;;4992393;28;20204;-57
2022/06/22 05:41:37;;;;;;;5.33;3.30;;;;;;;;;;4994445;28;20225;-58
2022/06/22 05:44:07;;;;;;;5.50;3.60;;;;;;;;;;4989786;28;20190;-59
2022/06/22 05:46:33;;;;;;;5.67;3.60;;;;;;;;;;4995731;28;20237;-57
2022/06/22 05:48:59;;;;;;;5.53;3.83;;;;;;;;;;4996029;28;20181;-58
2022/06/22 05:51:25;;;;;;;4.17;3.73;;;;;;;;;;4994800;28;20214;-57
2022/06/22 05:54:10;;;;;;;4.53;3.87;;;;;;;;;;4993098;28;20186;-57
2022/06/22 05:57:05;;;;;;;6.13;3.50;;;;;;;;;;4992997;28;20197;-57
2022/06/22 05:59:35;;;;;;;4.83;4.00;;;;;;;;;;4989665;28;20557;-57
2022/06/22 06:02:13;;;;;;;5.00;3.53;;;;;;;;;;4992132;28;20204;-57
2022/06/22 06:04:43;;;;;;;7.97;3.87;;;;;;;;;;4993660;28;20252;-57
2022/06/22 06:07:14;;;;;;;6.53;4.03;;;;;;;;;;4992601;28;20181;-57
2022/06/22 06:09:40;;;;;;;7.23;4.13;;;;;;;;;;4992206;28;20287;-57
2022/06/22 06:12:09;;;;;;;5.43;3.97;;;;;;;;;;4995196;28;20213;-57
2022/06/22 06:14:37;;;;;;;6.10;4.23;;;;;;;;;;4992870;28;20600;-57
2022/06/22 06:17:08;;;;;;;5.47;4.20;;;;;;;;;;4992832;28;20189;-58
2022/06/22 06:19:34;;;;;;;5.77;4.00;;;;;;;;;;4992401;28;20198;-56
2022/06/22 06:22:00;;;;;;;6.73;4.93;;;;;;;;;;4995027;28;20197;-56
2022/06/22 06:24:28;;;;;;;4.53;3.60;;;;;;;;;;4993926;28;20631;-57
2022/06/22 06:29:47;;;;;;;4.70;4.07;;;;;;;;;;4992799;28;20196;-58
2022/06/22 06:32:22;;;;;;;7.07;4.03;;;;;;;;;;4999122;28;20186;-57
2022/06/22 06:35:00;;;;;;;4.90;3.90;;;;;;;;;;4994101;28;21170;-58
2022/06/22 06:37:47;;;;;;;6.87;4.03;;;;;;;;;;4998449;28;20224;-58
2022/06/22 06:40:21;;;;;;;4.57;3.53;;;;;;;;;;4996074;28;20554;-56
2022/06/22 06:42:52;;;;;;;4.60;3.33;;;;;;;;;;4993467;28;20265;-57
2022/06/22 06:45:18;;;;;;;5.57;3.90;;;;;;;;;;4989178;28;20565;-56
2022/06/22 06:47:47;;;;;;;5.53;3.60;;;;;;;;;;4993435;28;20729;-57
2022/06/22 06:50:20;;;;;;;5.30;3.72;;;;;;;;;;4993124;28;22187;-58
2022/06/22 06:52:46;;;;;;;3.83;3.20;;;;;;;;;;4993749;28;20196;-58
2022/06/22 06:55:17;;;;;;;7.22;3.30;;;;;;;;;;4993903;28;20190;-58
2022/06/22 06:57:56;;;;;;;6.22;3.50;;;;;;;;;;4994683;28;20584;-57
2022/06/22 07:00:22;;;;;;;4.28;3.38;;;;;;;;;;4996042;28;20221;-58
2022/06/22 07:02:47;;;;;;;5.85;3.40;;;;;;;;;;4994405;28;20739;-57
2022/06/22 07:05:14;;;;;;;4.32;3.10;;;;;;;;;;4993061;28;20710;-57
2022/06/22 07:07:44;;;;;;;4.88;3.58;;;;;;;;;;4996362;28;20197;-58
2022/06/22 07:10:19;;;;;;;4.88;2.47;;;;;;;;;;4995490;28;20224;-57
2022/06/22 07:12:46;;;;;;;3.85;3.03;;;;;;;;;;4992265;28;20201;-57
2022/06/22 07:15:17;;;;;;;4.05;2.60;;;;;;;;;;4993380;28;20194;-57
2022/06/22 07:17:43;;;;;;;3.38;2.28;;;;;;;;;;4996917;28;20197;-57
2022/06/22 07:20:26;;;;;;;2.65;2.45;;;;;;;;;;4996002;28;20647;-58
2022/06/22 07:22:59;;;;;;;5.53;2.80;;;;;;;;;;4995502;28;20182;-58
2022/06/22 07:25:55;;;;;;;4.15;2.80;;;;;;;;;;4994724;28;20264;-58
2022/06/22 07:28:23;;;;;;;3.97;2.80;;;;;;;;;;4982221;28;20199;-58
2022/06/22 07:31:01;;;;;;;3.05;2.47;;;;;;;;;;4996145;28;20261;-58
2022/06/22 07:33:37;;;;;;;5.22;3.00;;;;;;;;;;4995263;28;20201;-58
2022/06/22 07:36:05;;;;;;;5.30;2.83;;;;;;;;;;4998716;28;20198;-57
2022/06/22 07:38:41;;;;;;;4.20;2.60;;;;;;;;;;4997880;28;20196;-58
2022/06/22 07:41:19;;;;;;;3.72;2.15;;;;;;;;;;4997192;28;20689;-57
2022/06/22 07:43:49;;;;;;;4.30;2.70;;;;;;;;;;5001144;28;20656;-57
2022/06/22 07:46:24;;;;;;;3.15;2.60;;;;;;;;;;4997490;28;20821;-58
2022/06/22 07:48:50;;;;;;;3.40;2.35;;;;;;;;;;4997720;28;20277;-57
2022/06/22 07:51:22;;;;;;;4.22;2.35;;;;;;;;;;4994625;28;20188;-57
2022/06/22 07:53:56;;;;;;;3.45;1.75;;;;;;;;;;4994642;28;20194;-58
2022/06/22 07:56:28;;;;;;;4.13;2.30;;;;;;;;;;4999499;28;20189;-57
2022/06/22 07:58:58;;;;;;;3.97;2.13;;;;;;;;;;4996751;28;20556;-57
2022/06/22 08:01:32;;;;;;;1.95;1.80;;;;;;;;;;4994559;28;20410;-58
2022/06/22 08:04:00;;;;;;;3.10;1.85;;;;;;;;;;4988282;28;20281;-57
2022/06/22 08:06:28;;;;;;;3.72;2.10;;;;;;;;;;4985914;28;20855;-59
2022/06/22 08:08:58;;;;;;;3.60;1.90;;;;;;;;;;4984040;28;20197;-58
2022/06/22 08:11:45;;;;;;;2.95;2.20;;;;;;;;;;4997325;28;20193;-59
2022/06/22 08:14:16;;;;;;;2.90;1.98;;;;;;;;;;4996620;28;20185;-57
2022/06/22 08:16:43;;;;;;;4.72;2.28;;;;;;;;;;4993061;28;20664;-57
2022/06/22 08:19:09;;;;;;;3.58;1.98;;;;;;;;;;4997318;28;20599;-58
2022/06/22 08:21:37;;;;;;;3.40;1.90;;;;;;;;;;4995807;28;20576;-57
2022/06/22 08:24:06;;;;;;;3.25;2.00;;;;;;;;;;5000729;28;20202;-58
2022/06/22 08:26:32;;;;;;;3.83;2.10;;;;;;;;;;4995862;28;20236;-58
2022/06/22 08:28:58;;;;;;;2.75;1.63;;;;;;;;;;4997386;28;20603;-57
2022/06/22 08:31:39;;;;;;;2.88;2.10;;;;;;;;;;4992084;28;20260;-58
2022/06/22 08:34:06;;;;;;;2.80;1.95;;;;;;;;;;4980023;28;20185;-57
2022/06/22 08:36:35;;;;;;;2.33;1.80;;;;;;;;;;4996870;28;20186;-58
2022/06/22 08:39:01;;;;;;;4.65;2.22;;;;;;;;;;4993509;28;20198;-58
2022/06/22 08:41:26;;;;;;;6.95;1.95;;;;;;;;;;4994691;28;20185;-57
2022/06/22 08:44:11;;;;;;;2.20;1.70;;;;;;;;;;4993322;28;20194;-58
2022/06/22 08:46:55;;;;;;;2.10;1.90;;;;;;;;;;4993036;28;20237;-57
2022/06/22 08:49:40;;;;;;;3.55;2.10;;;;;;;;;;4991863;28;20194;-57
2022/06/22 08:52:26;;;;;;;2.88;2.00;;;;;;;;;;4996048;28;20182;-59
2022/06/22 08:55:10;;;;;;;3.58;2.35;;;;;;;;;;4974499;28;20198;-57
2022/06/22 08:57:51;;;;;;;2.15;1.90;;;;;;;;;;4995869;28;20194;-58
2022/06/22 09:00:27;;;;;;;2.40;2.20;;;;;;;;;;4995649;28;20324;-57
2022/06/22 09:03:16;;;;;;;2.72;1.80;;;;;;;;;;4995910;28;20185;-58
2022/06/22 09:05:45;;;;;;;3.30;2.03;;;;;;;;;;4996407;28;20220;-57
2022/06/22 09:08:10;;;;;;;2.60;2.10;;;;;;;;;;4994997;28;20268;-58
2022/06/22 09:10:55;;;;;;;2.72;1.65;;;;;;;;;;4995878;28;20222;-59
2022/06/22 09:13:31;;;;;;;2.45;2.08;;;;;;;;;;4993748;28;20253;-58
2022/06/22 09:16:01;;;;;;;3.30;2.08;;;;;;;;;;4994260;28;20186;-58
2022/06/22 09:18:30;;;;;;;4.15;1.85;;;;;;;;;;4996747;28;20208;-58
2022/06/22 09:20:56;;;;;;;3.08;1.95;;;;;;;;;;4995368;28;20190;-59
2022/06/22 09:23:51;;;;;;;4.03;1.85;;;;;;;;;;4996235;28;20197;-59
2022/06/22 09:26:38;;;;;;;3.58;1.92;;;;;;;;;;4982989;28;20365;-59
2022/06/22 09:29:22;;;;;;;2.50;1.63;;;;;;;;;;4989261;28;20208;-57
2022/06/22 09:31:57;;;;;;;3.05;1.80;;;;;;;;;;4994371;28;20789;-59
2022/06/22 09:34:23;;;;;;;2.70;1.85;;;;;;;;;;4994088;28;20194;-57
2022/06/22 09:36:58;;;;;;;3.13;2.47;;;;;;;;;;4996145;28;20201;-60
2022/06/22 09:39:41;;;;;;;4.75;2.40;;;;;;;;;;4993726;28;20542;-58
2022/06/22 09:42:07;;;;;;;3.50;2.10;;;;;;;;;;4998235;28;20320;-58
2022/06/22 09:44:42;;;;;;;2.50;2.30;;;;;;;;;;4993005;28;20202;-58
2022/06/22 09:47:27;;;;;;;3.35;2.70;;;;;;;;;;4993350;28;20213;-58
2022/06/22 09:50:13;;;;;;;4.22;2.58;;;;;;;;;;4992103;28;20194;-58
2022/06/22 09:52:39;;;;;;;4.65;2.47;;;;;;;;;;4996728;28;20705;-58
2022/06/22 09:58:24;;;;;;;4.10;2.88;;;;;;;;;;4991620;28;20285;-57
2022/06/22 10:00:59;;;;;;;3.67;1.98;;;;;;;;;;4991027;28;20304;-58
2022/06/22 10:03:28;;;;;;;2.90;1.70;;;;;;;;;;4992619;28;20609;-58
2022/06/22 10:06:11;;;;;;;3.80;2.05;;;;;;;;;;4991259;28;20592;-57
2022/06/22 10:08:41;;;;;;;3.40;2.25;;;;;;;;;;4998317;28;20197;-57
2022/06/22 10:11:17;;;;;;;2.88;1.90;;;;;;;;;;4994425;28;20272;-58
2022/06/22 10:14:15;;;;;;;2.72;2.00;;;;;;;;;;4995254;28;20185;-58
2022/06/22 10:16:44;;;;;;;3.20;2.08;;;;;;;;;;4966721;28;20214;-58
2022/06/22 10:19:26;;;;;;;2.97;2.05;;;;;;;;;;4993798;28;20660;-58
2022/06/22 10:22:04;;;;;;;2.08;1.80;;;;;;;;;;4992666;28;20232;-59
2022/06/22 10:24:49;;;;;;;2.35;2.00;;;;;;;;;;4994999;28;20655;-58
2022/06/22 10:27:19;;;;;;;4.13;2.08;;;;;;;;;;4994121;28;20197;-58
2022/06/22 10:29:53;;;;;;;1.92;1.70;;;;;;;;;;4994764;28;20206;-58
2022/06/22 10:32:28;;;;;;;3.13;2.22;;;;;;;;;;4995802;28;20186;-58
2022/06/22 10:35:01;;;;;;;3.85;2.33;;;;;;;;;;4991979;28;20193;-58
2022/06/22 10:37:37;;;;;;;2.60;2.22;;;;;;;;;;4994562;28;20201;-59
2022/06/22 10:40:03;;;;;;;4.38;2.08;;;;;;;;;;4993507;28;20683;-58
2022/06/22 10:45:23;;;;;;;2.30;2.10;;;;;;;;;;4995999;28;20240;-58
2022/06/22 10:48:07;;;;;;;3.38;1.90;;;;;;;;;;4995084;28;20216;-58
2022/06/22 10:50:34;;;;;;;3.45;2.03;;;;;;;;;;4993863;28;20820;-59
2022/06/22 10:53:04;;;;;;;2.15;1.95;;;;;;;;;;4997895;28;20190;-58
2022/06/22 10:55:53;;;;;;;2.10;1.90;;;;;;;;;;4996508;28;20189;-59
2022/06/22 10:58:25;;;;;;;3.60;2.10;;;;;;;;;;4961433;28;20194;-59
2022/06/22 11:00:51;;;;;;;2.38;1.98;;;;;;;;;;4996084;28;20193;-58
2022/06/22 11:03:20;;;;;;;2.78;2.10;;;;;;;;;;4997115;28;20209;-58
2022/06/22 11:05:57;;;;;;;2.00;1.90;;;;;;;;;;4995967;28;20224;-57
2022/06/22 11:08:29;;;;;;;2.58;2.00;;;;;;;;;;4996587;28;20213;-58
2022/06/22 11:11:10;;;;;;;4.43;2.08;;;;;;;;;;4997416;28;20222;-58
2022/06/22 11:13:36;;;;;;;12.20;2.72;;;;;;;;;;4994402;28;20227;-60
2022/06/22 11:16:05;;;;;;;9.30;2.58;;;;;;;;;;4991596;28;20216;-61
2022/06/22 11:18:40;;;;;;;4.07;2.30;;;;;;;;;;4998798;28;20190;-58
2022/06/22 11:21:06;;;;;;;4.65;2.38;;;;;;;;;;4997939;28;20651;-58
2022/06/22 11:23:51;;;;;;;3.58;2.40;;;;;;;;;;4995493;28;20189;-58
2022/06/22 11:32:40;;;;;;;4.70;2.20;;;;;;;;;;4923136;29;20351;-58
2022/06/22 11:35:11;;;;;;;3.38;2.42;;;;;;;;;;4964582;28;20224;-57
2022/06/22 11:37:56;;;;;;;5.13;2.75;;;;;;;;;;4991901;28;20746;-58
2022/06/22 11:40:26;;;;;;;2.60;2.40;;;;;;;;;;4988051;28;20461;-58
2022/06/22 11:43:01;;;;;;;3.63;2.60;;;;;;;;;;4991774;28;20182;-58
2022/06/22 11:48:17;;;;;;;2.45;2.17;;;;;;;;;;4993953;28;20196;-58
2022/06/22 11:50:46;;;;;;;4.65;2.33;;;;;;;;;;4993324;28;20201;-59
2022/06/22 11:53:24;;;;;;;6.05;2.47;;;;;;;;;;4998713;28;20186;-59
2022/06/22 11:55:50;;;;;;;4.40;2.47;;;;;;;;;;4997424;28;20181;-59
2022/06/22 11:58:29;;;;;;;5.60;2.80;;;;;;;;;;5001079;28;20713;-58
2022/06/22 12:01:03;;;;;;;2.97;2.60;;;;;;;;;;4990182;28;20196;-60
2022/06/22 12:03:35;;;;;;;3.00;2.70;;;;;;;;;;4995791;28;20658;-58
2022/06/22 12:06:05;;;;;;;2.75;2.38;;;;;;;;;;4989505;28;20218;-57
2022/06/22 12:08:40;;;;;;;2.47;2.20;;;;;;;;;;5000527;28;20185;-58
2022/06/22 12:11:09;;;;;;;3.05;2.10;;;;;;;;;;4995367;28;20186;-58
2022/06/22 12:13:35;;;;;;;3.60;2.28;;;;;;;;;;4993726;28;20198;-58
2022/06/22 12:16:19;;;;;;;4.72;2.38;;;;;;;;;;4993606;28;20197;-58
2022/06/22 12:18:51;;;;;;;4.47;2.47;;;;;;;;;;4996172;28;20193;-59
2022/06/22 12:21:22;;;;;;;3.38;2.20;;;;;;;;;;4994077;28;20576;-58
2022/06/22 12:23:57;;;;;;;3.50;2.60;;;;;;;;;;4994456;28;20246;-59
2022/06/22 12:26:26;;;;;;;3.28;2.08;;;;;;;;;;4995052;28;20204;-60
2022/06/22 12:29:08;;;;;;;3.47;2.10;;;;;;;;;;4996118;28;20182;-59
2022/06/22 12:31:47;;;;;;;3.92;2.20;;;;;;;;;;4990130;28;20623;-59
2022/06/22 12:34:16;;;;;;;3.50;2.35;;;;;;;;;;4990056;28;20670;-58
2022/06/22 12:36:47;;;;;;;3.55;2.53;;;;;;;;;;4993305;28;20643;-60
2022/06/22 12:39:13;;;;;;;2.38;2.17;;;;;;;;;;4993543;28;20194;-59
2022/06/22 12:41:48;;;;;;;4.07;2.47;;;;;;;;;;4994038;28;20202;-59
2022/06/22 12:44:33;;;;;;;5.25;2.40;;;;;;;;;;4989089;28;20189;-59
2022/06/22 12:47:08;;;;;;;3.53;2.30;;;;;;;;;;4990283;28;20232;-58
2022/06/22 12:49:38;;;;;;;5.68;2.40;;;;;;;;;;4990336;28;20174;-59
2022/06/22 12:52:23;;;;;;;4.55;2.50;;;;;;;;;;4994881;28;20194;-59
2022/06/22 12:54:51;;;;;;;3.10;2.60;;;;;;;;;;4994555;28;20181;-59
2022/06/22 12:57:19;;;;;;;3.20;2.38;;;;;;;;;;4992752;28;20280;-58
2022/06/22 12:59:47;;;;;;;4.95;2.55;;;;;;;;;;4988799;28;20187;-58
2022/06/22 13:02:14;;;;;;;5.85;2.17;;;;;;;;;;4994752;28;20673;-59
2022/06/22 13:04:40;;;;;;;2.80;2.30;;;;;;;;;;4988331;28;20213;-59
2022/06/22 13:07:08;;;;;;;2.38;2.03;;;;;;;;;;4985498;28;20191;-59
2022/06/22 13:09:34;;;;;;;4.97;2.55;;;;;;;;;;4992362;28;20248;-59
2022/06/22 13:12:01;;;;;;;3.85;2.40;;;;;;;;;;4991596;28;20597;-60
2022/06/22 13:14:27;;;;;;;3.10;2.38;;;;;;;;;;4991507;28;20189;-58
2022/06/22 13:17:13;;;;;;;6.43;2.72;;;;;;;;;;4992182;28;20186;-59
2022/06/22 13:19:39;;;;;;;3.80;2.25;;;;;;;;;;4987826;28;20186;-59
2022/06/22 13:22:20;;;;;;;2.60;2.40;;;;;;;;;;4993530;28;20185;-58
2022/06/22 13:25:06;;;;;;;3.53;1.90;;;;;;;;;;4997083;28;22394;-59
2022/06/22 13:27:50;;;;;;;3.70;2.40;;;;;;;;;;4977128;28;20233;-58
2022/06/22 13:30:18;;;;;;;2.42;2.00;;;;;;;;;;4986979;28;20232;-58
2022/06/22 13:32:54;;;;;;;3.15;1.98;;;;;;;;;;4988243;28;20181;-59
2022/06/22 13:35:24;;;;;;;4.70;2.15;;;;;;;;;;4992427;28;21185;-59
2022/06/22 13:38:09;;;;;;;2.40;2.20;;;;;;;;;;4996234;28;20181;-58
2022/06/22 13:40:37;;;;;;;5.20;2.08;;;;;;;;;;4991405;28;20192;-59
2022/06/22 13:43:22;;;;;;;3.15;2.15;;;;;;;;;;4992896;28;20200;-58
2022/06/22 13:46:08;;;;;;;4.97;2.00;;;;;;;;;;4990249;28;20222;-58
2022/06/22 13:48:53;;;;;;;2.78;2.15;;;;;;;;;;4992257;28;20257;-58
2022/06/22 13:51:44;;;;;;;5.20;2.13;;;;;;;;;;4990156;28;20186;-57
2022/06/22 13:54:29;;;;;;;2.67;2.25;;;;;;;;;;4991837;28;20186;-58
2022/06/22 13:57:04;;;;;;;3.03;2.20;;;;;;;;;;4989989;28;20190;-59
2022/06/22 13:59:39;;;;;;;6.50;2.33;;;;;;;;;;4981874;28;20215;-60
2022/06/22 14:02:24;;;;;;;2.50;2.20;;;;;;;;;;4992538;28;20205;-58
2022/06/22 14:04:58;;;;;;;2.67;2.38;;;;;;;;;;4983468;28;20213;-59
2022/06/22 14:07:32;;;;;;;6.28;2.78;;;;;;;;;;4977653;28;20200;-59
2022/06/22 14:10:10;;;;;;;3.55;2.72;;;;;;;;;;4977501;28;20610;-57
2022/06/22 14:12:39;;;;;;;2.53;2.30;;;;;;;;;;4989677;28;20632;-58
2022/06/22 14:15:07;;;;;;;2.50;2.30;;;;;;;;;;4977786;28;20186;-58
2022/06/22 14:17:41;;;;;;;5.50;2.70;;;;;;;;;;4985473;28;20615;-59
2022/06/22 14:20:19;;;;;;;3.78;2.80;;;;;;;;;;4985144;28;20189;-59
2022/06/22 14:22:48;;;;;;;2.97;2.42;;;;;;;;;;4990028;28;20302;-59
2022/06/22 14:25:18;;;;;;;4.55;2.80;;;;;;;;;;4987917;28;20715;-58
2022/06/22 14:27:50;;;;;;;3.35;2.47;;;;;;;;;;4986842;28;20189;-58
2022/06/22 14:30:30;;;;;;;3.10;2.47;;;;;;;;;;4983693;28;21026;-58
2022/06/22 14:32:56;;;;;;;3.08;2.40;;;;;;;;;;4987513;28;20200;-59
2022/06/22 14:35:34;;;;;;;2.83;2.53;;;;;;;;;;4984244;28;20194;-59
2022/06/22 14:38:00;;;;;;;2.95;2.40;;;;;;;;;;4983652;28;20220;-58
2022/06/22 14:40:31;;;;;;;3.75;2.35;;;;;;;;;;4988567;28;20185;-59
2022/06/22 14:43:08;;;;;;;3.83;2.45;;;;;;;;;;4993053;28;20209;-58
2022/06/22 14:45:39;;;;;;;2.85;2.63;;;;;;;;;;4983129;28;20642;-58
2022/06/22 14:48:09;;;;;;;3.85;2.15;;;;;;;;;;4982145;28;20667;-58
2022/06/22 14:50:36;;;;;;;7.45;2.50;;;;;;;;;;4984122;28;20182;-58
2022/06/22 14:53:13;;;;;;;4.90;2.42;;;;;;;;;;4981239;28;20190;-58
2022/06/22 14:55:39;;;;;;;15.63;3.17;;;;;;;;;;4992438;28;20272;-57
2022/06/22 14:58:15;;;;;;;5.88;2.70;;;;;;;;;;4983201;28;20202;-57
2022/06/22 15:00:53;;;;;;;5.00;2.97;;;;;;;;;;4989495;28;20189;-56
2022/06/22 15:03:39;;;;;;;4.55;2.55;;;;;;;;;;4986720;28;20651;-57
2022/06/22 15:06:05;;;;;;;2.22;2.08;;;;;;;;;;4989596;28;20265;-57
2022/06/22 15:08:32;;;;;;;7.13;2.30;;;;;;;;;;4993430;28;20193;-57
2022/06/22 15:11:01;;;;;;;2.40;2.20;;;;;;;;;;4993297;28;20211;-58
2022/06/22 15:13:31;;;;;;;3.85;2.42;;;;;;;;;;4987293;28;20535;-57
2022/06/22 15:16:02;;;;;;;2.50;2.30;;;;;;;;;;4998493;28;20200;-57
2022/06/22 15:18:40;;;;;;;5.20;2.40;;;;;;;;;;4996289;28;20208;-57
2022/06/22 15:21:08;;;;;;;3.08;2.25;;;;;;;;;;4990237;28;20179;-58
2022/06/22 15:23:39;;;;;;;4.25;2.28;;;;;;;;;;4991969;28;20756;-58
2022/06/22 15:26:08;;;;;;;2.83;2.00;;;;;;;;;;4993704;28;20215;-59
2022/06/22 15:28:35;;;;;;;5.13;2.45;;;;;;;;;;4993746;28;20205;-58
2022/06/22 15:31:20;;;;;;;3.80;2.10;;;;;;;;;;4992565;28;20217;-58
2022/06/22 15:33:47;;;;;;;2.00;1.90;;;;;;;;;;4979760;28;20190;-58
2022/06/22 15:36:32;;;;;;;2.55;2.35;;;;;;;;;;4988010;28;20194;-58
2022/06/22 15:39:03;;;;;;;2.33;2.15;;;;;;;;;;4994555;28;20667;-59
2022/06/22 15:41:35;;;;;;;4.50;2.25;;;;;;;;;;4992607;28;20780;-58